sensor_id;sensor_type;location;lat;lon;timestamp;pressure;altitude;pressure_sealevel;temperature;humidity
19831;BME280;10076;52.008;4.708;2023-07-13T00:00:37;101366.88;;;20.38;100.00
19831;BME280;10076;52.008;4.708;2023-07-13T00:03:03;101366.38;;;20.43;100.00
19831;BME280;10076;52.008;4.708;2023-07-13T00:05:30;101366.50;;;20.33;100.00
19831;BME280;10076;52.008;4.708;2023-07-13T00:07:56;101368.13;;;20.26;100.00
19831;BME280;10076;52.008;4.708;2023-07-13T00:10:22;101365.44;;;20.26;100.00
19831;BME280;10076;52.008;4.708;2023-07-13T00:12:48;101361.50;;;20.13;100.00
19831;BME280;10076;52.008;4.708;2023-07-13T00:15:18;101365.09;;;20.21;100.00
19831;BME280;10076;52.008;4.708;2023-07-13T00:17:48;101360.19;;;20.17;100.00
19831;BME280;10076;52.008;4.708;2023-07-13T00:20:14;101356.59;;;20.09;100.00
19831;BME280;10076;52.008;4.708;2023-07-13T00:22:40;101358.59;;;20.07;100.00
19831;BME280;10076;52.008;4.708;2023-07-13T00:25:06;101363.75;;;20.00;100.00
19831;BME280;10076;52.008;4.708;2023-07-13T00:27:31;101358.38;;;20.00;100.00
19831;BME280;10076;52.008;4.708;2023-07-13T00:29:57;101363.41;;;20.03;100.00
19831;BME280;10076;52.008;4.708;2023-07-13T00:32:23;101369.22;;;20.16;100.00
19831;BME280;10076;52.008;4.708;2023-07-13T00:34:51;101366.47;;;20.08;100.00
19831;BME280;10076;52.008;4.708;2023-07-13T00:37:16;101368.75;;;20.20;100.00
19831;BME280;10076;52.008;4.708;2023-07-13T00:39:42;101364.06;;;20.22;100.00
19831;BME280;10076;52.008;4.708;2023-07-13T00:42:07;101362.00;;;20.16;100.00
19831;BME280;10076;52.008;4.708;2023-07-13T00:44:32;101357.78;;;20.14;100.00
19831;BME280;10076;52.008;4.708;2023-07-13T00:46:58;101368.25;;;20.25;100.00
19831;BME280;10076;52.008;4.708;2023-07-13T00:49:25;101357.50;;;20.00;100.00
19831;BME280;10076;52.008;4.708;2023-07-13T00:51:58;101360.72;;;20.03;100.00
19831;BME280;10076;52.008;4.708;2023-07-13T00:54:28;101363.66;;;20.10;100.00
19831;BME280;10076;52.008;4.708;2023-07-13T00:56:57;101372.44;;;20.02;100.00
19831;BME280;10076;52.008;4.708;2023-07-13T00:59:24;101371.91;;;19.81;100.00
19831;BME280;10076;52.008;4.708;2023-07-13T01:01:50;101371.63;;;20.02;100.00
19831;BME280;10076;52.008;4.708;2023-07-13T01:04:17;101368.31;;;20.08;100.00
19831;BME280;10076;52.008;4.708;2023-07-13T01:06:43;101364.81;;;20.07;100.00
19831;BME280;10076;52.008;4.708;2023-07-13T01:09:09;101375.63;;;19.98;100.00
19831;BME280;10076;52.008;4.708;2023-07-13T01:11:35;101366.91;;;19.86;100.00
19831;BME280;10076;52.008;4.708;2023-07-13T01:14:01;101372.06;;;19.80;100.00
19831;BME280;10076;52.008;4.708;2023-07-13T01:16:30;101374.81;;;19.88;100.00
19831;BME280;10076;52.008;4.708;2023-07-13T01:18:56;101377.81;;;19.85;100.00
19831;BME280;10076;52.008;4.708;2023-07-13T01:21:24;101381.03;;;19.88;100.00
19831;BME280;10076;52.008;4.708;2023-07-13T01:23:50;101376.13;;;19.84;100.00
19831;BME280;10076;52.008;4.708;2023-07-13T01:26:15;101376.88;;;19.76;100.00
19831;BME280;10076;52.008;4.708;2023-07-13T01:28:41;101380.63;;;19.66;100.00
19831;BME280;10076;52.008;4.708;2023-07-13T01:31:06;101375.72;;;19.61;100.00
19831;BME280;10076;52.008;4.708;2023-07-13T01:33:33;101387.69;;;19.84;100.00
19831;BME280;10076;52.008;4.708;2023-07-13T01:35:59;101383.72;;;20.06;100.00
19831;BME280;10076;52.008;4.708;2023-07-13T01:38:27;101389.22;;;19.87;100.00
19831;BME280;10076;52.008;4.708;2023-07-13T01:40:53;101385.78;;;19.59;100.00
19831;BME280;10076;52.008;4.708;2023-07-13T01:43:18;101388.13;;;19.62;100.00
19831;BME280;10076;52.008;4.708;2023-07-13T01:45:44;101388.50;;;19.50;100.00
19831;BME280;10076;52.008;4.708;2023-07-13T01:48:10;101386.13;;;19.82;100.00
19831;BME280;10076;52.008;4.708;2023-07-13T01:50:36;101390.75;;;19.72;100.00
19831;BME280;10076;52.008;4.708;2023-07-13T01:53:01;101397.09;;;19.53;100.00
19831;BME280;10076;52.008;4.708;2023-07-13T01:55:27;101407.22;;;19.59;100.00
19831;BME280;10076;52.008;4.708;2023-07-13T01:57:53;101406.44;;;19.67;100.00
19831;BME280;10076;52.008;4.708;2023-07-13T02:00:18;101408.72;;;19.79;100.00
19831;BME280;10076;52.008;4.708;2023-07-13T02:02:44;101408.19;;;19.76;100.00
19831;BME280;10076;52.008;4.708;2023-07-13T02:05:10;101412.72;;;19.58;100.00
19831;BME280;10076;52.008;4.708;2023-07-13T02:07:35;101410.44;;;19.36;100.00
19831;BME280;10076;52.008;4.708;2023-07-13T02:10:01;101415.59;;;19.47;100.00
19831;BME280;10076;52.008;4.708;2023-07-13T02:12:26;101399.38;;;19.48;100.00
19831;BME280;10076;52.008;4.708;2023-07-13T02:14:52;101415.25;;;19.33;100.00
19831;BME280;10076;52.008;4.708;2023-07-13T02:17:17;101412.44;;;19.34;100.00
19831;BME280;10076;52.008;4.708;2023-07-13T02:19:43;101407.38;;;19.31;100.00
19831;BME280;10076;52.008;4.708;2023-07-13T02:22:08;101402.13;;;19.12;100.00
19831;BME280;10076;52.008;4.708;2023-07-13T02:24:33;101404.25;;;19.36;100.00
19831;BME280;10076;52.008;4.708;2023-07-13T02:26:59;101403.59;;;19.51;100.00
19831;BME280;10076;52.008;4.708;2023-07-13T02:29:24;101405.34;;;19.42;100.00
19831;BME280;10076;52.008;4.708;2023-07-13T02:31:50;101400.22;;;19.49;100.00
19831;BME280;10076;52.008;4.708;2023-07-13T02:34:15;101403.50;;;19.43;100.00
19831;BME280;10076;52.008;4.708;2023-07-13T02:36:40;101412.72;;;19.58;100.00
19831;BME280;10076;52.008;4.708;2023-07-13T02:39:11;101403.13;;;19.38;100.00
19831;BME280;10076;52.008;4.708;2023-07-13T02:41:37;101407.31;;;19.41;100.00
19831;BME280;10076;52.008;4.708;2023-07-13T02:44:03;101401.59;;;19.09;100.00
19831;BME280;10076;52.008;4.708;2023-07-13T02:46:36;101406.09;;;19.08;100.00
19831;BME280;10076;52.008;4.708;2023-07-13T02:49:02;101403.56;;;18.97;100.00
19831;BME280;10076;52.008;4.708;2023-07-13T02:51:27;101411.59;;;18.97;100.00
19831;BME280;10076;52.008;4.708;2023-07-13T02:53:53;101400.56;;;19.10;100.00
19831;BME280;10076;52.008;4.708;2023-07-13T02:56:24;101404.03;;;19.29;100.00
19831;BME280;10076;52.008;4.708;2023-07-13T02:58:50;101401.00;;;19.05;100.00
19831;BME280;10076;52.008;4.708;2023-07-13T03:01:15;101399.72;;;18.82;100.00
19831;BME280;10076;52.008;4.708;2023-07-13T03:03:45;101402.63;;;18.89;100.00
19831;BME280;10076;52.008;4.708;2023-07-13T03:06:11;101407.75;;;18.82;100.00
19831;BME280;10076;52.008;4.708;2023-07-13T03:08:36;101410.66;;;19.25;100.00
19831;BME280;10076;52.008;4.708;2023-07-13T03:11:04;101412.84;;;19.39;100.00
19831;BME280;10076;52.008;4.708;2023-07-13T03:13:30;101412.53;;;19.15;100.00
19831;BME280;10076;52.008;4.708;2023-07-13T03:15:56;101413.91;;;19.19;100.00
19831;BME280;10076;52.008;4.708;2023-07-13T03:18:21;101411.31;;;19.00;100.00
19831;BME280;10076;52.008;4.708;2023-07-13T03:20:50;101409.47;;;19.01;100.00
19831;BME280;10076;52.008;4.708;2023-07-13T03:23:16;101410.41;;;19.19;100.00
19831;BME280;10076;52.008;4.708;2023-07-13T03:25:42;101409.16;;;19.13;100.00
19831;BME280;10076;52.008;4.708;2023-07-13T03:28:07;101407.63;;;19.01;100.00
19831;BME280;10076;52.008;4.708;2023-07-13T03:30:33;101418.13;;;18.85;100.00
19831;BME280;10076;52.008;4.708;2023-07-13T03:32:58;101420.34;;;18.99;100.00
19831;BME280;10076;52.008;4.708;2023-07-13T03:35:23;101420.28;;;18.72;100.00
19831;BME280;10076;52.008;4.708;2023-07-13T03:37:49;101419.59;;;18.71;100.00
19831;BME280;10076;52.008;4.708;2023-07-13T03:40:14;101425.19;;;18.86;100.00
19831;BME280;10076;52.008;4.708;2023-07-13T03:42:40;101416.19;;;18.78;100.00
19831;BME280;10076;52.008;4.708;2023-07-13T03:45:06;101427.59;;;18.80;100.00
19831;BME280;10076;52.008;4.708;2023-07-13T03:47:31;101417.91;;;18.70;100.00
19831;BME280;10076;52.008;4.708;2023-07-13T03:49:57;101423.97;;;18.72;100.00
19831;BME280;10076;52.008;4.708;2023-07-13T03:52:22;101429.44;;;18.70;100.00
19831;BME280;10076;52.008;4.708;2023-07-13T03:54:48;101424.56;;;18.66;100.00
19831;BME280;10076;52.008;4.708;2023-07-13T03:57:13;101432.22;;;18.42;100.00
19831;BME280;10076;52.008;4.708;2023-07-13T03:59:39;101430.47;;;18.60;100.00
19831;BME280;10076;52.008;4.708;2023-07-13T04:02:04;101437.00;;;18.48;100.00
19831;BME280;10076;52.008;4.708;2023-07-13T04:04:30;101437.81;;;18.58;100.00
19831;BME280;10076;52.008;4.708;2023-07-13T04:06:57;101445.41;;;18.53;100.00
19831;BME280;10076;52.008;4.708;2023-07-13T04:09:24;101448.78;;;18.55;100.00
19831;BME280;10076;52.008;4.708;2023-07-13T04:11:50;101448.34;;;18.69;100.00
19831;BME280;10076;52.008;4.708;2023-07-13T04:14:15;101444.19;;;18.83;100.00
19831;BME280;10076;52.008;4.708;2023-07-13T04:16:41;101454.66;;;18.77;100.00
19831;BME280;10076;52.008;4.708;2023-07-13T04:19:07;101447.34;;;18.70;100.00
19831;BME280;10076;52.008;4.708;2023-07-13T04:21:35;101451.25;;;18.75;100.00
19831;BME280;10076;52.008;4.708;2023-07-13T04:24:00;101454.38;;;18.71;100.00
19831;BME280;10076;52.008;4.708;2023-07-13T04:26:25;101458.25;;;18.95;100.00
19831;BME280;10076;52.008;4.708;2023-07-13T04:28:51;101463.94;;;18.82;100.00
19831;BME280;10076;52.008;4.708;2023-07-13T04:31:17;101466.19;;;18.77;100.00
19831;BME280;10076;52.008;4.708;2023-07-13T04:33:43;101467.03;;;18.78;100.00
19831;BME280;10076;52.008;4.708;2023-07-13T04:36:08;101463.06;;;18.82;100.00
19831;BME280;10076;52.008;4.708;2023-07-13T04:38:35;101462.34;;;18.89;100.00
19831;BME280;10076;52.008;4.708;2023-07-13T04:41:03;101471.78;;;18.93;100.00
19831;BME280;10076;52.008;4.708;2023-07-13T04:43:30;101463.97;;;19.19;100.00
19831;BME280;10076;52.008;4.708;2023-07-13T04:45:55;101475.53;;;19.10;100.00
19831;BME280;10076;52.008;4.708;2023-07-13T04:48:21;101472.47;;;18.95;100.00
19831;BME280;10076;52.008;4.708;2023-07-13T04:50:47;101482.47;;;19.39;100.00
19831;BME280;10076;52.008;4.708;2023-07-13T04:53:14;101482.16;;;19.15;100.00
19831;BME280;10076;52.008;4.708;2023-07-13T04:55:40;101478.47;;;19.26;100.00
19831;BME280;10076;52.008;4.708;2023-07-13T04:58:06;101481.78;;;19.37;100.00
19831;BME280;10076;52.008;4.708;2023-07-13T05:00:31;101477.59;;;19.25;100.00
19831;BME280;10076;52.008;4.708;2023-07-13T05:02:57;101469.75;;;19.14;100.00
19831;BME280;10076;52.008;4.708;2023-07-13T05:05:25;101477.69;;;19.42;100.00
19831;BME280;10076;52.008;4.708;2023-07-13T05:07:51;101485.34;;;19.55;100.00
19831;BME280;10076;52.008;4.708;2023-07-13T05:10:17;101486.38;;;19.71;100.00
19831;BME280;10076;52.008;4.708;2023-07-13T05:12:42;101486.63;;;19.78;100.00
19831;BME280;10076;52.008;4.708;2023-07-13T05:15:09;101490.38;;;19.85;100.00
19831;BME280;10076;52.008;4.708;2023-07-13T05:17:35;101494.50;;;20.06;100.00
19831;BME280;10076;52.008;4.708;2023-07-13T05:20:01;101495.94;;;20.01;100.00
19831;BME280;10076;52.008;4.708;2023-07-13T05:22:26;101497.09;;;19.98;100.00
19831;BME280;10076;52.008;4.708;2023-07-13T05:24:52;101495.19;;;20.08;100.00
19831;BME280;10076;52.008;4.708;2023-07-13T05:27:17;101493.13;;;20.19;100.00
19831;BME280;10076;52.008;4.708;2023-07-13T05:29:42;101497.41;;;20.13;100.00
19831;BME280;10076;52.008;4.708;2023-07-13T05:32:08;101497.72;;;20.10;100.00
19831;BME280;10076;52.008;4.708;2023-07-13T05:34:33;101494.63;;;20.39;100.00
19831;BME280;10076;52.008;4.708;2023-07-13T05:36:58;101500.84;;;20.40;100.00
19831;BME280;10076;52.008;4.708;2023-07-13T05:39:24;101503.38;;;20.41;100.00
19831;BME280;10076;52.008;4.708;2023-07-13T05:41:51;101497.78;;;20.52;100.00
19831;BME280;10076;52.008;4.708;2023-07-13T05:44:16;101505.19;;;20.58;100.00
19831;BME280;10076;52.008;4.708;2023-07-13T05:46:42;101513.25;;;20.58;100.00
19831;BME280;10076;52.008;4.708;2023-07-13T05:49:07;101514.81;;;20.43;100.00
19831;BME280;10076;52.008;4.708;2023-07-13T05:51:32;101516.81;;;20.59;100.00
19831;BME280;10076;52.008;4.708;2023-07-13T05:53:58;101510.72;;;20.74;100.00
19831;BME280;10076;52.008;4.708;2023-07-13T05:56:23;101507.94;;;20.83;100.00
19831;BME280;10076;52.008;4.708;2023-07-13T05:58:50;101523.16;;;20.75;100.00
19831;BME280;10076;52.008;4.708;2023-07-13T06:01:16;101520.22;;;20.86;100.00
19831;BME280;10076;52.008;4.708;2023-07-13T06:03:42;101531.19;;;20.92;100.00
19831;BME280;10076;52.008;4.708;2023-07-13T06:06:09;101523.16;;;21.00;100.00
19831;BME280;10076;52.008;4.708;2023-07-13T06:08:36;101531.91;;;21.02;100.00
19831;BME280;10076;52.008;4.708;2023-07-13T06:11:16;101526.75;;;21.09;100.00
19831;BME280;10076;52.008;4.708;2023-07-13T06:13:41;101529.81;;;21.14;100.00
19831;BME280;10076;52.008;4.708;2023-07-13T06:16:07;101534.75;;;20.76;100.00
19831;BME280;10076;52.008;4.708;2023-07-13T06:18:34;101533.88;;;20.75;100.00
19831;BME280;10076;52.008;4.708;2023-07-13T06:21:05;101546.03;;;20.44;100.00
19831;BME280;10076;52.008;4.708;2023-07-13T06:23:30;101549.28;;;20.21;100.00
19831;BME280;10076;52.008;4.708;2023-07-13T06:25:56;101550.34;;;20.11;100.00
19831;BME280;10076;52.008;4.708;2023-07-13T06:28:21;101554.28;;;19.89;100.00
19831;BME280;10076;52.008;4.708;2023-07-13T06:30:47;101552.09;;;19.75;100.00
19831;BME280;10076;52.008;4.708;2023-07-13T06:33:12;101554.88;;;19.93;100.00
19831;BME280;10076;52.008;4.708;2023-07-13T06:35:37;101559.16;;;19.76;100.00
19831;BME280;10076;52.008;4.708;2023-07-13T06:38:03;101555.38;;;19.69;100.00
19831;BME280;10076;52.008;4.708;2023-07-13T06:40:30;101551.78;;;19.51;100.00
19831;BME280;10076;52.008;4.708;2023-07-13T06:42:56;101563.16;;;19.63;100.00
19831;BME280;10076;52.008;4.708;2023-07-13T06:45:21;101561.09;;;19.57;100.00
19831;BME280;10076;52.008;4.708;2023-07-13T06:47:47;101569.31;;;19.73;100.00
19831;BME280;10076;52.008;4.708;2023-07-13T06:50:12;101576.22;;;19.75;100.00
19831;BME280;10076;52.008;4.708;2023-07-13T06:52:37;101568.22;;;19.66;100.00
19831;BME280;10076;52.008;4.708;2023-07-13T06:55:03;101564.50;;;19.76;100.00
19831;BME280;10076;52.008;4.708;2023-07-13T06:57:28;101569.13;;;19.57;100.00
19831;BME280;10076;52.008;4.708;2023-07-13T06:59:54;101580.06;;;19.37;100.00
19831;BME280;10076;52.008;4.708;2023-07-13T07:02:19;101579.97;;;19.00;100.00
19831;BME280;10076;52.008;4.708;2023-07-13T07:04:44;101576.75;;;18.78;100.00
19831;BME280;10076;52.008;4.708;2023-07-13T07:07:10;101576.31;;;18.92;100.00
19831;BME280;10076;52.008;4.708;2023-07-13T07:09:35;101580.66;;;19.02;100.00
19831;BME280;10076;52.008;4.708;2023-07-13T07:12:02;101576.03;;;18.76;100.00
19831;BME280;10076;52.008;4.708;2023-07-13T07:14:28;101575.47;;;19.10;100.00
19831;BME280;10076;52.008;4.708;2023-07-13T07:16:53;101578.03;;;19.48;100.00
19831;BME280;10076;52.008;4.708;2023-07-13T07:19:19;101583.50;;;19.83;100.00
19831;BME280;10076;52.008;4.708;2023-07-13T07:21:44;101585.47;;;20.17;100.00
19831;BME280;10076;52.008;4.708;2023-07-13T07:24:09;101592.16;;;20.30;100.00
19831;BME280;10076;52.008;4.708;2023-07-13T07:26:35;101591.16;;;20.66;100.00
19831;BME280;10076;52.008;4.708;2023-07-13T07:29:00;101581.81;;;20.70;100.00
19831;BME280;10076;52.008;4.708;2023-07-13T07:31:25;101586.47;;;20.68;100.00
19831;BME280;10076;52.008;4.708;2023-07-13T07:33:51;101587.13;;;20.97;100.00
19831;BME280;10076;52.008;4.708;2023-07-13T07:36:16;101586.38;;;21.38;100.00
19831;BME280;10076;52.008;4.708;2023-07-13T07:38:43;101596.38;;;21.28;100.00
19831;BME280;10076;52.008;4.708;2023-07-13T07:41:08;101590.28;;;21.43;100.00
19831;BME280;10076;52.008;4.708;2023-07-13T07:43:34;101592.00;;;21.27;100.00
19831;BME280;10076;52.008;4.708;2023-07-13T07:46:00;101588.91;;;21.14;100.00
19831;BME280;10076;52.008;4.708;2023-07-13T07:48:25;101591.72;;;20.87;100.00
19831;BME280;10076;52.008;4.708;2023-07-13T07:50:51;101587.88;;;20.72;100.00
19831;BME280;10076;52.008;4.708;2023-07-13T07:53:16;101605.66;;;20.56;100.00
19831;BME280;10076;52.008;4.708;2023-07-13T07:55:42;101609.72;;;20.60;100.00
19831;BME280;10076;52.008;4.708;2023-07-13T07:58:07;101602.38;;;20.44;100.00
19831;BME280;10076;52.008;4.708;2023-07-13T08:00:32;101597.50;;;20.30;100.00
19831;BME280;10076;52.008;4.708;2023-07-13T08:02:58;101602.88;;;20.30;100.00
19831;BME280;10076;52.008;4.708;2023-07-13T08:05:24;101600.00;;;20.76;100.00
19831;BME280;10076;52.008;4.708;2023-07-13T08:07:50;101605.25;;;20.68;100.00
19831;BME280;10076;52.008;4.708;2023-07-13T08:10:16;101607.22;;;20.14;100.00
19831;BME280;10076;52.008;4.708;2023-07-13T08:12:42;101603.13;;;19.93;100.00
19831;BME280;10076;52.008;4.708;2023-07-13T08:15:11;101603.41;;;19.80;100.00
19831;BME280;10076;52.008;4.708;2023-07-13T08:17:37;101606.00;;;19.72;100.00
19831;BME280;10076;52.008;4.708;2023-07-13T08:20:03;101607.94;;;19.80;100.00
19831;BME280;10076;52.008;4.708;2023-07-13T08:22:29;101604.41;;;20.33;100.00
19831;BME280;10076;52.008;4.708;2023-07-13T08:24:54;101606.66;;;20.55;100.00
19831;BME280;10076;52.008;4.708;2023-07-13T08:27:24;101597.03;;;20.79;100.00
19831;BME280;10076;52.008;4.708;2023-07-13T08:29:50;101597.09;;;20.87;100.00
19831;BME280;10076;52.008;4.708;2023-07-13T08:32:16;101602.06;;;20.99;100.00
19831;BME280;10076;52.008;4.708;2023-07-13T08:34:43;101607.09;;;21.20;100.00
19831;BME280;10076;52.008;4.708;2023-07-13T08:37:08;101605.56;;;21.43;100.00
19831;BME280;10076;52.008;4.708;2023-07-13T08:39:34;101603.41;;;21.71;100.00
19831;BME280;10076;52.008;4.708;2023-07-13T08:42:21;101608.91;;;22.36;100.00
19831;BME280;10076;52.008;4.708;2023-07-13T08:45:00;101610.13;;;22.58;100.00
19831;BME280;10076;52.008;4.708;2023-07-13T08:47:31;101607.72;;;22.39;100.00
19831;BME280;10076;52.008;4.708;2023-07-13T08:49:59;101612.38;;;21.88;100.00
19831;BME280;10076;52.008;4.708;2023-07-13T08:52:34;101613.41;;;21.54;100.00
19831;BME280;10076;52.008;4.708;2023-07-13T08:55:29;101614.47;;;21.00;100.00
19831;BME280;10076;52.008;4.708;2023-07-13T08:58:03;101616.13;;;20.93;100.00
19831;BME280;10076;52.008;4.708;2023-07-13T09:03:25;101618.50;;;20.79;100.00
19831;BME280;10076;52.008;4.708;2023-07-13T09:05:57;101621.53;;;20.67;100.00
19831;BME280;10076;52.008;4.708;2023-07-13T09:13:42;101632.19;;;20.41;100.00
19831;BME280;10076;52.008;4.708;2023-07-13T09:16:09;101632.94;;;20.51;100.00
19831;BME280;10076;52.008;4.708;2023-07-13T09:18:40;101624.81;;;20.61;100.00
19831;BME280;10076;52.008;4.708;2023-07-13T09:21:12;101635.41;;;21.14;100.00
19831;BME280;10076;52.008;4.708;2023-07-13T09:23:40;101632.41;;;21.93;100.00
19831;BME280;10076;52.008;4.708;2023-07-13T09:26:18;101643.88;;;22.44;100.00
19831;BME280;10076;52.008;4.708;2023-07-13T09:28:48;101637.63;;;22.36;100.00
19831;BME280;10076;52.008;4.708;2023-07-13T09:31:38;101638.16;;;22.31;100.00
19831;BME280;10076;52.008;4.708;2023-07-13T09:34:12;101636.81;;;22.02;100.00
19831;BME280;10076;52.008;4.708;2023-07-13T09:36:37;101638.69;;;22.02;100.00
19831;BME280;10076;52.008;4.708;2023-07-13T09:39:15;101652.47;;;21.73;100.00
19831;BME280;10076;52.008;4.708;2023-07-13T09:42:05;101649.44;;;21.68;100.00
19831;BME280;10076;52.008;4.708;2023-07-13T09:44:38;101657.22;;;21.79;100.00
19831;BME280;10076;52.008;4.708;2023-07-13T09:47:15;101666.91;;;21.72;100.00
19831;BME280;10076;52.008;4.708;2023-07-13T09:49:41;101663.34;;;21.64;100.00
19831;BME280;10076;52.008;4.708;2023-07-13T09:52:12;101666.88;;;21.47;100.00
19831;BME280;10076;52.008;4.708;2023-07-13T09:54:39;101664.81;;;21.41;100.00
19831;BME280;10076;52.008;4.708;2023-07-13T09:57:17;101676.75;;;21.56;100.00
19831;BME280;10076;52.008;4.708;2023-07-13T09:59:49;101664.34;;;21.88;100.00
19831;BME280;10076;52.008;4.708;2023-07-13T10:02:28;101674.53;;;23.16;100.00
19831;BME280;10076;52.008;4.708;2023-07-13T10:05:00;101673.50;;;23.25;100.00
19831;BME280;10076;52.008;4.708;2023-07-13T10:07:26;101678.13;;;24.03;100.00
19831;BME280;10076;52.008;4.708;2023-07-13T10:09:56;101672.47;;;24.20;100.00
19831;BME280;10076;52.008;4.708;2023-07-13T10:12:23;101675.28;;;24.95;100.00
19831;BME280;10076;52.008;4.708;2023-07-13T10:14:52;101675.00;;;25.49;100.00
19831;BME280;10076;52.008;4.708;2023-07-13T10:17:26;101683.28;;;25.99;100.00
19831;BME280;10076;52.008;4.708;2023-07-13T10:20:00;101686.56;;;25.43;100.00
19831;BME280;10076;52.008;4.708;2023-07-13T10:22:37;101695.38;;;24.70;100.00
19831;BME280;10076;52.008;4.708;2023-07-13T10:25:20;101684.31;;;25.10;100.00
19831;BME280;10076;52.008;4.708;2023-07-13T10:27:49;101687.41;;;25.58;100.00
19831;BME280;10076;52.008;4.708;2023-07-13T10:30:20;101688.28;;;25.22;100.00
19831;BME280;10076;52.008;4.708;2023-07-13T10:32:49;101696.84;;;25.99;100.00
19831;BME280;10076;52.008;4.708;2023-07-13T10:35:16;101689.34;;;26.79;100.00
19831;BME280;10076;52.008;4.708;2023-07-13T10:37:55;101692.13;;;27.96;100.00
19831;BME280;10076;52.008;4.708;2023-07-13T10:40:27;101692.00;;;28.11;100.00
19831;BME280;10076;52.008;4.708;2023-07-13T10:42:55;101692.16;;;28.37;100.00
19831;BME280;10076;52.008;4.708;2023-07-13T10:45:23;101689.53;;;27.82;100.00
19831;BME280;10076;52.008;4.708;2023-07-13T10:47:52;101699.00;;;27.17;100.00
19831;BME280;10076;52.008;4.708;2023-07-13T10:50:25;101698.06;;;25.60;100.00
19831;BME280;10076;52.008;4.708;2023-07-13T10:52:55;101705.56;;;24.60;100.00
19831;BME280;10076;52.008;4.708;2023-07-13T10:58:12;101706.84;;;23.32;100.00
19831;BME280;10076;52.008;4.708;2023-07-13T11:00:57;101702.31;;;23.25;100.00
19831;BME280;10076;52.008;4.708;2023-07-13T11:03:27;101707.53;;;25.19;100.00
19831;BME280;10076;52.008;4.708;2023-07-13T11:06:08;101712.72;;;27.36;100.00
19831;BME280;10076;52.008;4.708;2023-07-13T11:16:36;101717.41;;;29.76;100.00
19831;BME280;10076;52.008;4.708;2023-07-13T11:21:27;101718.19;;;30.21;100.00
19831;BME280;10076;52.008;4.708;2023-07-13T11:24:28;101707.47;;;27.56;100.00
19831;BME280;10076;52.008;4.708;2023-07-13T11:26:55;101715.44;;;28.99;100.00
19831;BME280;10076;52.008;4.708;2023-07-13T11:31:54;101719.16;;;31.64;92.05
19831;BME280;10076;52.008;4.708;2023-07-13T11:34:38;101720.63;;;32.81;85.92
19831;BME280;10076;52.008;4.708;2023-07-13T11:37:10;101723.31;;;33.80;73.27
19831;BME280;10076;52.008;4.708;2023-07-13T11:39:39;101721.06;;;33.77;72.33
19831;BME280;10076;52.008;4.708;2023-07-13T11:42:16;101723.13;;;33.52;66.06
19831;BME280;10076;52.008;4.708;2023-07-13T11:44:50;101730.53;;;33.11;67.03
19831;BME280;10076;52.008;4.708;2023-07-13T11:47:20;101726.69;;;32.83;70.71
19831;BME280;10076;52.008;4.708;2023-07-13T11:49:52;101735.09;;;33.17;73.79
19831;BME280;10076;52.008;4.708;2023-07-13T11:52:21;101741.06;;;33.77;68.26
19831;BME280;10076;52.008;4.708;2023-07-13T11:54:56;101741.78;;;33.73;66.15
19831;BME280;10076;52.008;4.708;2023-07-13T11:57:39;101729.31;;;34.73;62.48
19831;BME280;10076;52.008;4.708;2023-07-13T12:00:16;101734.22;;;35.88;58.75
19831;BME280;10076;52.008;4.708;2023-07-13T12:02:45;101734.44;;;36.57;58.85
19831;BME280;10076;52.008;4.708;2023-07-13T12:05:15;101731.88;;;36.34;53.59
19831;BME280;10076;52.008;4.708;2023-07-13T12:07:43;101736.41;;;36.40;53.97
19831;BME280;10076;52.008;4.708;2023-07-13T12:12:36;101736.19;;;37.63;51.13
19831;BME280;10076;52.008;4.708;2023-07-13T12:15:10;101735.59;;;37.92;49.56
19831;BME280;10076;52.008;4.708;2023-07-13T12:17:36;101728.38;;;37.86;49.17
19831;BME280;10076;52.008;4.708;2023-07-13T12:20:07;101734.13;;;35.83;50.89
19831;BME280;10076;52.008;4.708;2023-07-13T12:22:39;101729.47;;;35.67;53.01
19831;BME280;10076;52.008;4.708;2023-07-13T12:25:06;101729.63;;;35.77;51.40
19831;BME280;10076;52.008;4.708;2023-07-13T12:27:31;101727.91;;;36.84;51.48
19831;BME280;10076;52.008;4.708;2023-07-13T12:32:25;101733.03;;;36.16;50.38
19831;BME280;10076;52.008;4.708;2023-07-13T12:34:55;101730.31;;;36.59;49.75
19831;BME280;10076;52.008;4.708;2023-07-13T12:37:22;101738.06;;;35.87;48.91
19831;BME280;10076;52.008;4.708;2023-07-13T12:39:48;101729.72;;;35.82;49.74
19831;BME280;10076;52.008;4.708;2023-07-13T12:42:27;101720.09;;;33.60;54.39
19831;BME280;10076;52.008;4.708;2023-07-13T12:44:56;101721.16;;;31.75;63.64
19831;BME280;10076;52.008;4.708;2023-07-13T12:47:23;101726.59;;;30.20;75.45
19831;BME280;10076;52.008;4.708;2023-07-13T12:49:53;101716.56;;;29.49;84.34
19831;BME280;10076;52.008;4.708;2023-07-13T12:52:37;101715.88;;;28.56;90.41
19831;BME280;10076;52.008;4.708;2023-07-13T12:55:15;101712.63;;;28.33;93.39
19831;BME280;10076;52.008;4.708;2023-07-13T12:57:51;101718.47;;;27.96;97.24
19831;BME280;10076;52.008;4.708;2023-07-13T13:02:51;101721.38;;;27.46;100.00
19831;BME280;10076;52.008;4.708;2023-07-13T13:05:18;101722.31;;;27.32;100.00
19831;BME280;10076;52.008;4.708;2023-07-13T13:07:43;101725.13;;;27.45;100.00
19831;BME280;10076;52.008;4.708;2023-07-13T13:10:13;101727.19;;;27.43;100.00
19831;BME280;10076;52.008;4.708;2023-07-13T13:12:39;101725.22;;;27.58;100.00
19831;BME280;10076;52.008;4.708;2023-07-13T13:15:08;101728.94;;;28.73;100.00